Eldridge, IA

2:42 AM CST on February 09, 2016 (GMT -0600)
West Hickory Street | | Change Station
CLOSE
Current Station
Personal Weather Station
Location: Eldridge, IA
Elevation: 774 ft
Nearby Weather Stations
Active Advisory: Special Statement

Elev 774 ft 41.65 °N, 90.59 °W | Updated 10 minutes ago

Snow
Snow
14.6 °F
Feels Like 2 °F
N
11.0
Wind Variable Wind from North
Gusts 19.0 mph

Today
High -- | Low -- °F
--% Chance of Precip.
Yesterday
High -- | Low -- °F
Precip. -- in
Pressure 29.89 in
Visibility 3.0 miles
Clouds Overcast 2100 ft
Windchill 2 °F
Dew Point 11 °F
Humidity 86%
Rainfall 0.00 in
Snow Depth Not available.
7:05 AM 5:27 PM
New Moon, 1% visible
METAR KDVN 090752Z AUTO 33016KT 3SM -SN OVC021 M09/M12 A2985 RMK AO2 SLP121 P0000 T10941122
Pressure 29.89 in
Visibility 3.0 miles
Clouds Overcast 2100 ft
Windchill 2 °F
Dew Point 11 °F
Humidity 86%
Rainfall 0.00 in
Snow Depth Not available.
7:05 AM 5:27 PM
New Moon, 1% visible
METAR KDVN 090752Z AUTO 33016KT 3SM -SN OVC021 M09/M12 A2985 RMK AO2 SLP121 P0000 T10941122

10-Day Weather Forecast

Almanac

Astronomy

Feb. 09, 2016 Rise Set
Actual Time
Civil Twilight
Nautical Twilight
Astronomical Twilight
Moon
Length of Visible Light
Length of Day
Tomorrow will be .
, % of the Moon is Illuminated

Today's Extremes

State Highs State Lows

Community

WunderPhotos

Upload Photos

1,891,571 photos uploaded!

WunderBlog® & News

Nearby

Air Quality

  Air Quality AQ Index Pollutant
Not available.

Snow Depth

Station Depth Elevation

Earthquake Activity

City Distance Mag. Time & Date
Minimum magnitude displayed is 2.5.

Coastal Water Temperatures

Place Temperature

Stations

Nearby Weather Stations

Station Location Temp. Windchill Dew Point Humidity Wind Precip. Elev Updated Type
                   

Watches & Warnings

Special Statement
Issued: 2:17 AM CST Feb. 9, 2016 – National Weather Service

... Light snow and shallow drifting overnight...

Areas of light snow will continue through the early morning hours.
Additional snow totals will be light with a dusting to a few
tenths... especially along and east of the Mississippi River. Wind
gusts of 15 to 25 mph and the light nature of the snow are
resulting in shallow blowing and drifting... with limited
visibility of roadway markers. Use caution if traveling early
this morning.

Rp Kinney